BAW428 EGLL-EHAM
Flight info
| Callsign | BAW428 |
|---|---|
| Flight time | 0h 41m |
| Altitude | 23000 |
| Route | DCT BPK Q295 BRAIN M197 REDFA DCT |
| Aircraft | A320/M-SDE3FGHIJ1KRWXY/SB1 |
Departure
| Time | 2026-05-06 05:05 |
|---|---|
| Airport | London Heathrow Airport (EGLL) |
Arrival
| Time | 2026-05-06 05:46 |
|---|---|
| Airport | Amsterdam Airport Schiphol (EHAM) |
| Time | Latitude | Longitude | Altitude | Speed | Heading |
|---|---|---|---|---|---|
| 2026-05-06 04:17 | 51.47316 | -0.48583 | 85 ft | 0 kts | 268° |
| 2026-05-06 04:19 | 51.47315 | -0.48603 | 87 ft | 0 kts | 270° |
| 2026-05-06 04:52 | 51.47315 | -0.48598 | 87 ft | 3 kts | 270° |
| 2026-05-06 04:52 | 51.47315 | -0.48557 | 88 ft | 3 kts | 270° |
| 2026-05-06 04:52 | 51.47316 | -0.48522 | 85 ft | 4 kts | 260° |
| 2026-05-06 04:53 | 51.47325 | -0.48485 | 90 ft | 4 kts | 216° |
| 2026-05-06 04:53 | 51.47344 | -0.48476 | 89 ft | 1 kts | 180° |
| 2026-05-06 04:53 | 51.47345 | -0.48476 | 89 ft | 0 kts | 180° |
| 2026-05-06 04:55 | 51.47344 | -0.48476 | 89 ft | 1 kts | 180° |
| 2026-05-06 04:55 | 51.47333 | -0.48476 | 90 ft | 3 kts | 180° |
| 2026-05-06 04:56 | 51.47307 | -0.48476 | 89 ft | 5 kts | 180° |
| 2026-05-06 04:56 | 51.47273 | -0.48476 | 85 ft | 6 kts | 180° |
| 2026-05-06 04:56 | 51.47226 | -0.48476 | 85 ft | 8 kts | 180° |
| 2026-05-06 04:56 | 51.47166 | -0.48475 | 85 ft | 9 kts | 180° |
| 2026-05-06 04:57 | 51.47095 | -0.48475 | 85 ft | 11 kts | 180° |
| 2026-05-06 04:57 | 51.47018 | -0.48475 | 85 ft | 12 kts | 180° |
| 2026-05-06 04:57 | 51.46941 | -0.48474 | 85 ft | 10 kts | 179° |
| 2026-05-06 04:57 | 51.46880 | -0.48471 | 85 ft | 8 kts | 178° |
| 2026-05-06 04:58 | 51.46819 | -0.48469 | 85 ft | 10 kts | 179° |
| 2026-05-06 04:58 | 51.46744 | -0.48468 | 85 ft | 11 kts | 180° |
| 2026-05-06 04:58 | 51.46692 | -0.48468 | 86 ft | 4 kts | 180° |
| 2026-05-06 04:58 | 51.46672 | -0.48469 | 87 ft | 1 kts | 180° |
| 2026-05-06 04:59 | 51.46655 | -0.48469 | 88 ft | 4 kts | 180° |
| 2026-05-06 05:00 | 51.46632 | -0.48469 | 89 ft | 3 kts | 180° |
| 2026-05-06 05:00 | 51.46610 | -0.48470 | 89 ft | 3 kts | 180° |
| 2026-05-06 05:00 | 51.46596 | -0.48470 | 89 ft | 0 kts | 180° |
| 2026-05-06 05:02 | 51.46590 | -0.48470 | 89 ft | 2 kts | 180° |
| 2026-05-06 05:03 | 51.46570 | -0.48470 | 89 ft | 4 kts | 180° |
| 2026-05-06 05:03 | 51.46531 | -0.48468 | 88 ft | 7 kts | 173° |
| 2026-05-06 05:03 | 51.46483 | -0.48405 | 87 ft | 11 kts | 112° |
| 2026-05-06 05:03 | 51.46479 | -0.48274 | 87 ft | 18 kts | 90° |
| 2026-05-06 05:04 | 51.46478 | -0.47736 | 82 ft | 83 kts | 90° |
| 2026-05-06 05:04 | 51.46484 | -0.46505 | 91 ft | 135 kts | 90° |
| 2026-05-06 05:04 | 51.46503 | -0.44804 | 232 ft | 160 kts | 79° |
| 2026-05-06 05:04 | 51.46543 | -0.42997 | 577 ft | 167 kts | 85° |
| 2026-05-06 05:05 | 51.46661 | -0.41098 | 1068 ft | 170 kts | 62° |
| 2026-05-06 05:05 | 51.47231 | -0.39508 | 1765 ft | 163 kts | 40° |
| 2026-05-06 05:05 | 51.47998 | -0.38007 | 1929 ft | 185 kts | 47° |
| 2026-05-06 05:05 | 51.48808 | -0.36242 | 2100 ft | 206 kts | 47° |
| 2026-05-06 05:06 | 51.49710 | -0.34348 | 2398 ft | 228 kts | 44° |
| 2026-05-06 05:06 | 51.50810 | -0.32301 | 2772 ft | 251 kts | 44° |
| 2026-05-06 05:06 | 51.52000 | -0.30089 | 3248 ft | 269 kts | 54° |
| 2026-05-06 05:06 | 51.52913 | -0.27422 | 3980 ft | 276 kts | 64° |
| 2026-05-06 05:07 | 51.53627 | -0.24580 | 4954 ft | 272 kts | 65° |
| 2026-05-06 05:07 | 51.54501 | -0.21877 | 5446 ft | 273 kts | 55° |
| 2026-05-06 05:07 | 51.55902 | -0.19835 | 5946 ft | 275 kts | 33° |
| 2026-05-06 05:07 | 51.57580 | -0.18423 | 6790 ft | 278 kts | 25° |
| 2026-05-06 05:08 | 51.59408 | -0.17360 | 7604 ft | 282 kts | 12° |
| 2026-05-06 05:08 | 51.61323 | -0.16760 | 8391 ft | 285 kts | 13° |
| 2026-05-06 05:08 | 51.63296 | -0.16021 | 9177 ft | 288 kts | 15° |
| 2026-05-06 05:08 | 51.65215 | -0.15209 | 9916 ft | 291 kts | 16° |
| 2026-05-06 05:09 | 51.67238 | -0.14298 | 10347 ft | 308 kts | 17° |
| 2026-05-06 05:09 | 51.69348 | -0.13313 | 10525 ft | 331 kts | 18° |
| 2026-05-06 05:09 | 51.71483 | -0.11757 | 10890 ft | 343 kts | 33° |
| 2026-05-06 05:09 | 51.73338 | -0.09307 | 11496 ft | 347 kts | 48° |
| 2026-05-06 05:10 | 51.74759 | -0.06167 | 12130 ft | 349 kts | 63° |
| 2026-05-06 05:10 | 51.75626 | -0.02505 | 12760 ft | 351 kts | 78° |
| 2026-05-06 05:10 | 51.75994 | 0.01395 | 13395 ft | 354 kts | 83° |
| 2026-05-06 05:10 | 51.76209 | 0.04009 | 13806 ft | 356 kts | 83° |
| 2026-05-06 05:11 | 51.76535 | 0.07986 | 14432 ft | 359 kts | 83° |
| 2026-05-06 05:11 | 51.76863 | 0.12001 | 15023 ft | 362 kts | 83° |
| 2026-05-06 05:11 | 51.77192 | 0.16042 | 15594 ft | 365 kts | 83° |
| 2026-05-06 05:11 | 51.77525 | 0.20120 | 16149 ft | 368 kts | 83° |
| 2026-05-06 05:12 | 51.77860 | 0.24235 | 16701 ft | 371 kts | 83° |
| 2026-05-06 05:12 | 51.78197 | 0.28395 | 17255 ft | 374 kts | 83° |
| 2026-05-06 05:12 | 51.78535 | 0.32576 | 17801 ft | 377 kts | 83° |
| 2026-05-06 05:12 | 51.78873 | 0.36788 | 18347 ft | 380 kts | 83° |
| 2026-05-06 05:13 | 51.79213 | 0.41045 | 18897 ft | 384 kts | 83° |
| 2026-05-06 05:13 | 51.79553 | 0.45342 | 19447 ft | 387 kts | 83° |
| 2026-05-06 05:13 | 51.79896 | 0.49673 | 19995 ft | 390 kts | 83° |
| 2026-05-06 05:13 | 51.80241 | 0.54040 | 20527 ft | 393 kts | 83° |
| 2026-05-06 05:14 | 51.80585 | 0.58438 | 21033 ft | 396 kts | 83° |
| 2026-05-06 05:14 | 51.80930 | 0.62868 | 21517 ft | 399 kts | 83° |
| 2026-05-06 05:14 | 51.81434 | 0.67294 | 21981 ft | 402 kts | 76° |
| 2026-05-06 05:14 | 51.82124 | 0.71697 | 22428 ft | 405 kts | 76° |
| 2026-05-06 05:15 | 51.82809 | 0.76123 | 22820 ft | 408 kts | 77° |
| 2026-05-06 05:15 | 51.83495 | 0.80591 | 22926 ft | 410 kts | 77° |
| 2026-05-06 05:15 | 51.84216 | 0.85090 | 22945 ft | 417 kts | 75° |
| 2026-05-06 05:15 | 51.85011 | 0.89597 | 22942 ft | 416 kts | 74° |
| 2026-05-06 05:16 | 51.85845 | 0.94083 | 22943 ft | 415 kts | 73° |
| 2026-05-06 05:16 | 51.86690 | 0.98538 | 22943 ft | 415 kts | 73° |
| 2026-05-06 05:16 | 51.87534 | 1.03005 | 22943 ft | 415 kts | 73° |
| 2026-05-06 05:16 | 51.88364 | 1.07470 | 22943 ft | 415 kts | 74° |
| 2026-05-06 05:17 | 51.89186 | 1.11961 | 22943 ft | 415 kts | 74° |
| 2026-05-06 05:17 | 51.89993 | 1.16434 | 22943 ft | 415 kts | 74° |
| 2026-05-06 05:17 | 51.90786 | 1.20876 | 22944 ft | 415 kts | 75° |
| 2026-05-06 05:17 | 51.91595 | 1.25431 | 22945 ft | 415 kts | 75° |
| 2026-05-06 05:18 | 51.92374 | 1.29831 | 22946 ft | 415 kts | 75° |
| 2026-05-06 05:18 | 51.93177 | 1.34348 | 22947 ft | 415 kts | 75° |
| 2026-05-06 05:18 | 51.93986 | 1.38902 | 22948 ft | 415 kts | 75° |
| 2026-05-06 05:18 | 51.94785 | 1.43397 | 22948 ft | 415 kts | 75° |
| 2026-05-06 05:19 | 51.95584 | 1.47896 | 22949 ft | 415 kts | 75° |
| 2026-05-06 05:19 | 51.96381 | 1.52396 | 22949 ft | 415 kts | 75° |
| 2026-05-06 05:19 | 51.97167 | 1.56846 | 22949 ft | 415 kts | 75° |
| 2026-05-06 05:19 | 51.97955 | 1.61349 | 22949 ft | 415 kts | 75° |
| 2026-05-06 05:20 | 51.98737 | 1.65842 | 22948 ft | 415 kts | 75° |
| 2026-05-06 05:20 | 51.99513 | 1.70355 | 22947 ft | 415 kts | 75° |
| 2026-05-06 05:20 | 52.00249 | 1.74880 | 22946 ft | 414 kts | 76° |
| 2026-05-06 05:20 | 52.00952 | 1.79405 | 22944 ft | 414 kts | 77° |
| 2026-05-06 05:21 | 52.01641 | 1.83955 | 22943 ft | 414 kts | 77° |
| 2026-05-06 05:21 | 52.02326 | 1.88498 | 22941 ft | 414 kts | 77° |
| 2026-05-06 05:21 | 52.03014 | 1.93044 | 22939 ft | 414 kts | 77° |
| 2026-05-06 05:21 | 52.03705 | 1.97578 | 22938 ft | 414 kts | 77° |
| 2026-05-06 05:22 | 52.04402 | 2.02121 | 22936 ft | 414 kts | 76° |
| 2026-05-06 05:22 | 52.05092 | 2.06600 | 22935 ft | 414 kts | 76° |
| 2026-05-06 05:22 | 52.05789 | 2.11136 | 22934 ft | 414 kts | 77° |
| 2026-05-06 05:22 | 52.06484 | 2.15676 | 22933 ft | 414 kts | 77° |
| 2026-05-06 05:23 | 52.07176 | 2.20218 | 22933 ft | 414 kts | 77° |
| 2026-05-06 05:23 | 52.07866 | 2.24760 | 22933 ft | 414 kts | 77° |
| 2026-05-06 05:23 | 52.09237 | 2.33834 | 22933 ft | 414 kts | 77° |
| 2026-05-06 05:24 | 52.09917 | 2.38371 | 22811 ft | 408 kts | 77° |
| 2026-05-06 05:24 | 52.10577 | 2.42795 | 22559 ft | 398 kts | 77° |
| 2026-05-06 05:24 | 52.11274 | 2.47116 | 22309 ft | 392 kts | 72° |
| 2026-05-06 05:24 | 52.12341 | 2.51168 | 22059 ft | 389 kts | 62° |
| 2026-05-06 05:25 | 52.13713 | 2.54967 | 21810 ft | 388 kts | 60° |
| 2026-05-06 05:25 | 52.15091 | 2.58746 | 21558 ft | 387 kts | 60° |
| 2026-05-06 05:25 | 52.16455 | 2.62502 | 21310 ft | 385 kts | 60° |
| 2026-05-06 05:25 | 52.17813 | 2.66262 | 21052 ft | 384 kts | 60° |
| 2026-05-06 05:26 | 52.19158 | 2.70001 | 20829 ft | 382 kts | 60° |
| 2026-05-06 05:26 | 52.20498 | 2.73732 | 20569 ft | 381 kts | 60° |
| 2026-05-06 05:26 | 52.21819 | 2.77409 | 20205 ft | 379 kts | 60° |
| 2026-05-06 05:26 | 52.23148 | 2.81102 | 19853 ft | 377 kts | 60° |
| 2026-05-06 05:27 | 52.24469 | 2.84773 | 19512 ft | 374 kts | 60° |
| 2026-05-06 05:27 | 52.25785 | 2.88436 | 19157 ft | 372 kts | 60° |
| 2026-05-06 05:27 | 52.27087 | 2.92075 | 18808 ft | 371 kts | 60° |
| 2026-05-06 05:27 | 52.28385 | 2.95712 | 18464 ft | 369 kts | 60° |
| 2026-05-06 05:28 | 52.29671 | 2.99315 | 18123 ft | 367 kts | 60° |
| 2026-05-06 05:28 | 52.30952 | 3.02903 | 17789 ft | 365 kts | 60° |
| 2026-05-06 05:28 | 52.32228 | 3.06482 | 17442 ft | 363 kts | 60° |
| 2026-05-06 05:28 | 52.33494 | 3.10044 | 17107 ft | 361 kts | 60° |
| 2026-05-06 05:29 | 52.34749 | 3.13582 | 16771 ft | 359 kts | 60° |
| 2026-05-06 05:29 | 52.36000 | 3.17114 | 16431 ft | 357 kts | 60° |
| 2026-05-06 05:29 | 52.37240 | 3.20627 | 16102 ft | 356 kts | 61° |
| 2026-05-06 05:29 | 52.38472 | 3.24122 | 15776 ft | 354 kts | 61° |
| 2026-05-06 05:30 | 52.39700 | 3.27606 | 15441 ft | 352 kts | 61° |
| 2026-05-06 05:30 | 52.40920 | 3.31069 | 15109 ft | 350 kts | 61° |
| 2026-05-06 05:30 | 52.42135 | 3.34523 | 14788 ft | 349 kts | 61° |
| 2026-05-06 05:30 | 52.43342 | 3.37958 | 14463 ft | 347 kts | 61° |
| 2026-05-06 05:31 | 52.44490 | 3.41414 | 14137 ft | 345 kts | 67° |
| 2026-05-06 05:31 | 52.45245 | 3.45117 | 13807 ft | 342 kts | 77° |
| 2026-05-06 05:31 | 52.45777 | 3.48858 | 13513 ft | 341 kts | 77° |
| 2026-05-06 05:31 | 52.46324 | 3.52680 | 13186 ft | 339 kts | 77° |
| 2026-05-06 05:32 | 52.46855 | 3.56380 | 12879 ft | 337 kts | 77° |
| 2026-05-06 05:32 | 52.47398 | 3.60176 | 12556 ft | 336 kts | 77° |
| 2026-05-06 05:32 | 52.47921 | 3.63845 | 12241 ft | 334 kts | 78° |
| 2026-05-06 05:32 | 52.48449 | 3.67559 | 11935 ft | 333 kts | 78° |
| 2026-05-06 05:33 | 52.48972 | 3.71243 | 11618 ft | 331 kts | 78° |
| 2026-05-06 05:33 | 52.49491 | 3.74915 | 11314 ft | 330 kts | 78° |
| 2026-05-06 05:33 | 52.50007 | 3.78563 | 11010 ft | 328 kts | 78° |
| 2026-05-06 05:33 | 52.50523 | 3.82209 | 10704 ft | 327 kts | 78° |
| 2026-05-06 05:34 | 52.51030 | 3.85830 | 10399 ft | 324 kts | 78° |
| 2026-05-06 05:34 | 52.51528 | 3.89390 | 10235 ft | 314 kts | 78° |
| 2026-05-06 05:34 | 52.52007 | 3.92815 | 10107 ft | 302 kts | 79° |
| 2026-05-06 05:34 | 52.52203 | 3.96177 | 9958 ft | 292 kts | 94° |
| 2026-05-06 05:35 | 52.51868 | 3.99404 | 9809 ft | 283 kts | 108° |
| 2026-05-06 05:35 | 52.51165 | 4.02428 | 9625 ft | 283 kts | 112° |
| 2026-05-06 05:35 | 52.50433 | 4.05428 | 9450 ft | 283 kts | 112° |
| 2026-05-06 05:35 | 52.49704 | 4.08418 | 9187 ft | 281 kts | 112° |
| 2026-05-06 05:36 | 52.48976 | 4.11392 | 8914 ft | 280 kts | 112° |
| 2026-05-06 05:36 | 52.48253 | 4.14355 | 8643 ft | 279 kts | 112° |
| 2026-05-06 05:36 | 52.47534 | 4.17302 | 8374 ft | 278 kts | 112° |
| 2026-05-06 05:36 | 52.46816 | 4.20234 | 8100 ft | 277 kts | 112° |
| 2026-05-06 05:37 | 52.46096 | 4.23161 | 7826 ft | 275 kts | 112° |
| 2026-05-06 05:37 | 52.45385 | 4.26038 | 7565 ft | 274 kts | 112° |
| 2026-05-06 05:37 | 52.44664 | 4.28963 | 7296 ft | 273 kts | 112° |
| 2026-05-06 05:37 | 52.43955 | 4.31841 | 7028 ft | 272 kts | 112° |
| 2026-05-06 05:38 | 52.43178 | 4.34655 | 6758 ft | 270 kts | 123° |
| 2026-05-06 05:38 | 52.41909 | 4.36885 | 6498 ft | 268 kts | 145° |
| 2026-05-06 05:38 | 52.40228 | 4.38147 | 6237 ft | 267 kts | 167° |
| 2026-05-06 05:38 | 52.38383 | 4.38297 | 5967 ft | 267 kts | 184° |
| 2026-05-06 05:39 | 52.36555 | 4.38050 | 5701 ft | 267 kts | 184° |
| 2026-05-06 05:39 | 52.34684 | 4.37810 | 5425 ft | 265 kts | 184° |
| 2026-05-06 05:39 | 52.32870 | 4.37585 | 5165 ft | 264 kts | 184° |
| 2026-05-06 05:39 | 52.31037 | 4.37359 | 4903 ft | 263 kts | 184° |
| 2026-05-06 05:40 | 52.29214 | 4.37132 | 4633 ft | 262 kts | 184° |
| 2026-05-06 05:40 | 52.27422 | 4.36908 | 4492 ft | 254 kts | 184° |
| 2026-05-06 05:40 | 52.25689 | 4.36795 | 4362 ft | 244 kts | 173° |
| 2026-05-06 05:40 | 52.24118 | 4.37632 | 4228 ft | 234 kts | 148° |
| 2026-05-06 05:41 | 52.22950 | 4.39397 | 4072 ft | 229 kts | 124° |
| 2026-05-06 05:41 | 52.22221 | 4.41697 | 3895 ft | 229 kts | 115° |
| 2026-05-06 05:41 | 52.21548 | 4.44047 | 3682 ft | 227 kts | 115° |
| 2026-05-06 05:41 | 52.20990 | 4.46420 | 3470 ft | 223 kts | 102° |
| 2026-05-06 05:42 | 52.20864 | 4.48909 | 3270 ft | 218 kts | 92° |
| 2026-05-06 05:42 | 52.20842 | 4.51347 | 3093 ft | 212 kts | 87° |
| 2026-05-06 05:42 | 52.21187 | 4.53640 | 2818 ft | 205 kts | 66° |
| 2026-05-06 05:42 | 52.21900 | 4.55565 | 2549 ft | 192 kts | 59° |
| 2026-05-06 05:43 | 52.22594 | 4.57356 | 2309 ft | 182 kts | 59° |
| 2026-05-06 05:43 | 52.23235 | 4.59011 | 2091 ft | 162 kts | 59° |
| 2026-05-06 05:43 | 52.23812 | 4.60503 | 1873 ft | 151 kts | 59° |
| 2026-05-06 05:43 | 52.24355 | 4.61910 | 1682 ft | 147 kts | 59° |
| 2026-05-06 05:44 | 52.24903 | 4.63327 | 1477 ft | 145 kts | 60° |
| 2026-05-06 05:44 | 52.25433 | 4.64700 | 1294 ft | 144 kts | 59° |
| 2026-05-06 05:44 | 52.25967 | 4.66085 | 1097 ft | 144 kts | 59° |
| 2026-05-06 05:44 | 52.26500 | 4.67466 | 916 ft | 143 kts | 59° |
| 2026-05-06 05:45 | 52.27031 | 4.68843 | 725 ft | 143 kts | 59° |
| 2026-05-06 05:45 | 52.27561 | 4.70219 | 533 ft | 143 kts | 59° |
| 2026-05-06 05:45 | 52.28089 | 4.71589 | 348 ft | 142 kts | 59° |
| 2026-05-06 05:45 | 52.28615 | 4.72954 | 155 ft | 142 kts | 59° |
| 2026-05-06 05:46 | 52.29134 | 4.74306 | 3 ft | 132 kts | 58° |
| 2026-05-06 05:46 | 52.29531 | 4.75291 | -2 ft | 79 kts | 58° |
| 2026-05-06 05:46 | 52.29751 | 4.75877 | -4 ft | 49 kts | 61° |
| 2026-05-06 05:46 | 52.29908 | 4.76316 | -7 ft | 39 kts | 57° |
| 2026-05-06 05:47 | 52.30022 | 4.76520 | -3 ft | 16 kts | 38° |
| 2026-05-06 05:47 | 52.30120 | 4.76615 | -3 ft | 16 kts | 27° |
| 2026-05-06 05:47 | 52.30222 | 4.76702 | -3 ft | 17 kts | 27° |
| 2026-05-06 05:47 | 52.30304 | 4.76797 | -3 ft | 15 kts | 56° |
| 2026-05-06 05:48 | 52.30358 | 4.76938 | -3 ft | 13 kts | 57° |
| 2026-05-06 05:48 | 52.30431 | 4.77031 | -3 ft | 15 kts | 356° |
| 2026-05-06 05:48 | 52.30532 | 4.77074 | -3 ft | 16 kts | 11° |
| 2026-05-06 05:48 | 52.30595 | 4.77034 | -2 ft | 4 kts | 328° |
| 2026-05-06 05:49 | 52.30631 | 4.77019 | -2 ft | 6 kts | 1° |
| 2026-05-06 05:49 | 52.30683 | 4.77023 | -2 ft | 9 kts | 2° |
| 2026-05-06 05:49 | 52.30707 | 4.77025 | -2 ft | 0 kts | 3° |